createdAt,value
2022-10-05T00:01:58.790Z,8.58
2022-10-05T00:04:29.195Z,8.33
2022-10-05T00:07:01.463Z,8.28
2022-10-05T00:09:33.316Z,8.22
2022-10-05T00:12:07.451Z,8.06
2022-10-05T00:14:37.877Z,8.75
2022-10-05T00:17:06.980Z,8.01
2022-10-05T00:19:38.542Z,7.99
2022-10-05T00:22:13.031Z,8.14
2022-10-05T00:24:43.010Z,8.21
2022-10-05T00:27:19.296Z,8.18
2022-10-05T00:29:48.737Z,8.16
2022-10-05T00:32:17.289Z,7.65
2022-10-05T00:34:46.265Z,8.12
2022-10-05T00:37:15.646Z,7.64
2022-10-05T00:39:46.183Z,7.82
2022-10-05T00:42:30.936Z,8.11
2022-10-05T00:45:08.060Z,8.36
2022-10-05T00:47:51.065Z,7.61
2022-10-05T00:50:42.426Z,7.69
2022-10-05T00:53:20.389Z,7.72
2022-10-05T00:56:00.592Z,7.90
2022-10-05T00:58:39.864Z,7.90
2022-10-05T01:01:13.344Z,8.28
2022-10-05T01:03:52.642Z,7.79
2022-10-05T01:06:30.381Z,8.08
2022-10-05T01:09:08.669Z,8.13
2022-10-05T01:11:47.382Z,7.50
2022-10-05T01:14:22.401Z,8.00
2022-10-05T01:16:57.539Z,7.53
2022-10-05T01:19:52.297Z,7.27
2022-10-05T01:22:34.026Z,7.71
2022-10-05T01:25:14.088Z,7.48
2022-10-05T01:27:55.715Z,7.77
2022-10-05T01:30:24.595Z,7.97
2022-10-05T01:33:00.407Z,8.01
2022-10-05T01:35:44.435Z,7.73
2022-10-05T01:38:39.351Z,7.43
2022-10-05T01:41:19.709Z,7.85
2022-10-05T01:43:52.576Z,7.93
2022-10-05T01:46:26.667Z,7.56
2022-10-05T01:49:04.654Z,7.83
2022-10-05T01:51:42.226Z,7.99
2022-10-05T01:54:22.734Z,7.79
2022-10-05T01:57:02.013Z,8.19
2022-10-05T01:59:44.582Z,8.44
2022-10-05T02:02:15.973Z,8.47
2022-10-05T02:05:07.478Z,8.74
2022-10-05T02:07:40.339Z,8.33
2022-10-05T02:10:19.552Z,8.24
2022-10-05T02:12:52.149Z,8.19
2022-10-05T02:15:27.086Z,8.58
2022-10-05T02:18:00.712Z,8.43
2022-10-05T02:20:31.439Z,8.55
2022-10-05T02:23:04.110Z,8.22
2022-10-05T02:25:36.533Z,8.59
2022-10-05T02:28:10.181Z,8.43
2022-10-05T02:30:45.460Z,8.48
2022-10-05T02:33:20.708Z,8.50
2022-10-05T02:35:49.012Z,8.61
2022-10-05T02:38:27.160Z,8.55
2022-10-05T02:41:03.389Z,8.59
2022-10-05T02:43:43.395Z,8.76
2022-10-05T02:46:23.250Z,8.96
2022-10-05T02:49:04.414Z,8.67
2022-10-05T02:51:43.063Z,9.13
2022-10-05T02:54:20.361Z,9.00
2022-10-05T02:56:58.279Z,8.74
2022-10-05T02:59:35.413Z,8.93
2022-10-05T03:02:13.657Z,8.77
2022-10-05T03:04:49.863Z,8.98
2022-10-05T03:07:24.931Z,8.82
2022-10-05T03:10:03.031Z,8.94
2022-10-05T03:12:44.006Z,8.57
2022-10-05T03:15:24.354Z,8.73
2022-10-05T03:18:05.345Z,8.90
2022-10-05T03:20:43.937Z,8.24
2022-10-05T03:23:23.186Z,8.31
2022-10-05T03:26:06.626Z,8.32
2022-10-05T03:28:45.294Z,8.12
2022-10-05T03:31:21.794Z,8.20
2022-10-05T03:33:57.947Z,8.37
2022-10-05T03:36:31.890Z,8.26
2022-10-05T03:39:07.625Z,8.29
2022-10-05T03:41:42.324Z,7.64
2022-10-05T03:44:26.114Z,7.74
2022-10-05T03:47:11.268Z,7.67
2022-10-05T03:49:54.175Z,7.55
2022-10-05T03:52:29.034Z,7.80
2022-10-05T03:55:02.928Z,7.72
2022-10-05T03:57:33.842Z,8.42
2022-10-05T04:00:06.359Z,8.10
2022-10-05T04:02:38.826Z,8.04
2022-10-05T04:05:16.705Z,7.68
2022-10-05T04:07:47.931Z,7.65
2022-10-05T04:10:23.825Z,8.24
2022-10-05T04:12:56.896Z,8.34
2022-10-05T04:15:31.092Z,8.53
2022-10-05T04:18:04.178Z,8.60
2022-10-05T04:20:41.192Z,8.56
2022-10-05T04:23:19.279Z,8.78
2022-10-05T04:25:52.786Z,8.85
2022-10-05T04:35:33.704Z,9.33
2022-10-05T04:38:25.053Z,9.33
2022-10-05T04:41:07.368Z,9.44
2022-10-05T04:43:47.920Z,9.57
2022-10-05T04:46:27.379Z,9.54
2022-10-05T04:49:14.702Z,9.61
2022-10-05T04:51:53.709Z,10.15
2022-10-05T04:54:34.405Z,9.89
2022-10-05T04:57:07.371Z,9.74
2022-10-05T05:00:01.910Z,10.11
2022-10-05T05:02:37.399Z,10.11
2022-10-05T05:06:17.203Z,9.47
2022-10-05T05:09:12.407Z,9.40
2022-10-05T05:12:25.999Z,10.22
2022-10-05T05:15:26.989Z,9.83
2022-10-05T05:18:45.190Z,9.60
2022-10-05T05:21:29.449Z,9.67
2022-10-05T05:24:07.551Z,10.35
2022-10-05T05:26:52.720Z,9.52
2022-10-05T05:29:28.933Z,9.94
2022-10-05T05:31:59.929Z,9.63
2022-10-05T05:38:32.295Z,9.97
2022-10-05T05:41:09.822Z,10.05
2022-10-05T05:43:53.193Z,10.09
2022-10-05T05:46:51.250Z,10.08
2022-10-05T05:49:19.514Z,10.02
2022-10-05T05:51:52.645Z,9.23
2022-10-05T05:54:29.557Z,9.39
2022-10-05T05:57:09.104Z,9.55
2022-10-05T05:59:53.341Z,9.58
2022-10-05T06:02:26.182Z,9.58
2022-10-05T06:04:59.859Z,9.54
2022-10-05T06:07:31.964Z,9.61
2022-10-05T06:10:04.961Z,9.67
2022-10-05T06:12:36.350Z,9.47
2022-10-05T06:15:18.575Z,9.34
2022-10-05T06:17:52.907Z,9.14
2022-10-05T06:20:26.850Z,9.38
2022-10-05T06:23:00.498Z,9.26
2022-10-05T06:25:39.260Z,9.32
2022-10-05T06:28:11.636Z,9.92
2022-10-05T06:30:50.710Z,9.56
2022-10-05T06:33:30.836Z,9.79
2022-10-05T06:36:16.446Z,9.85
2022-10-05T06:39:03.334Z,9.91
2022-10-05T06:41:44.749Z,10.35
2022-10-05T06:44:17.966Z,10.40
2022-10-05T06:46:57.071Z,10.21
2022-10-05T06:49:30.696Z,9.90
2022-10-05T06:52:08.383Z,10.30
2022-10-05T06:54:47.157Z,10.81
2022-10-05T06:57:30.850Z,10.91
2022-10-05T07:00:02.793Z,10.90
2022-10-05T07:02:40.488Z,11.36
2022-10-05T07:05:47.429Z,12.07
2022-10-05T07:08:20.780Z,11.45
2022-10-05T07:11:04.195Z,12.02
2022-10-05T07:14:01.152Z,12.05
2022-10-05T07:16:41.607Z,12.29
2022-10-05T07:19:24.029Z,12.72
2022-10-05T07:22:08.959Z,13.25
2022-10-05T08:08:32.732Z,16.33
2022-10-05T08:24:54.175Z,16.54
2022-10-05T08:27:29.630Z,16.83
2022-10-05T08:30:02.461Z,17.15
2022-10-05T08:32:34.874Z,17.52
2022-10-05T08:36:53.673Z,17.36
2022-10-05T08:38:30.806Z,17.79
2022-10-05T08:41:37.643Z,17.32
2022-10-05T08:45:23.203Z,17.81
2022-10-05T08:52:26.210Z,18.33
2022-10-05T08:56:33.991Z,18.56
2022-10-05T08:59:05.703Z,18.53
2022-10-05T09:01:50.182Z,18.57
2022-10-05T09:04:30.308Z,18.39
2022-10-05T09:07:22.481Z,18.31
2022-10-05T09:10:27.643Z,18.54
2022-10-05T09:13:28.302Z,18.36
2022-10-05T09:16:37.148Z,18.56
2022-10-05T09:19:36.337Z,18.74
2022-10-05T09:22:15.896Z,18.53
2022-10-05T09:25:15.952Z,18.49
2022-10-05T09:28:12.751Z,19.05
2022-10-05T09:30:58.018Z,18.82
2022-10-05T09:33:54.915Z,19.25
2022-10-05T09:36:56.121Z,19.39
2022-10-05T09:40:25.147Z,19.02
2022-10-05T09:43:03.785Z,19.56
2022-10-05T09:45:49.325Z,19.67
2022-10-05T09:52:13.915Z,19.61
2022-10-05T09:55:20.268Z,19.44
2022-10-05T09:58:12.250Z,19.64
2022-10-05T10:04:18.889Z,19.66
2022-10-05T10:07:53.074Z,19.94
2022-10-05T10:10:57.819Z,20.19
2022-10-05T10:14:08.484Z,20.18
2022-10-05T10:16:55.053Z,20.71
2022-10-05T10:20:08.060Z,20.08
2022-10-05T10:26:46.845Z,20.55
2022-10-05T10:30:08.753Z,20.73
2022-10-05T10:33:12.249Z,20.45
2022-10-05T10:35:51.400Z,20.64
2022-10-05T10:38:41.639Z,20.66
2022-10-05T10:41:42.074Z,20.52
2022-10-05T10:44:53.194Z,20.66
2022-10-05T10:47:41.403Z,20.67
2022-10-05T10:50:45.330Z,20.59
2022-10-05T10:53:27.423Z,21.28
2022-10-05T10:56:10.333Z,20.90
2022-10-05T10:59:05.920Z,20.78
2022-10-05T11:01:37.124Z,20.89
2022-10-05T11:04:32.277Z,20.92
2022-10-05T11:07:24.219Z,20.67
2022-10-05T11:10:57.624Z,20.78
2022-10-05T11:13:44.217Z,20.88
2022-10-05T11:16:45.014Z,20.91
2022-10-05T11:19:40.026Z,20.85
2022-10-05T11:30:02.159Z,21.01
2022-10-05T11:33:01.878Z,21.27
2022-10-05T11:36:30.381Z,21.31
2022-10-05T11:39:39.192Z,20.99
2022-10-05T11:43:42.061Z,20.90
2022-10-05T11:52:11.237Z,21.50
2022-10-05T11:55:16.667Z,21.62
2022-10-05T11:57:51.823Z,21.54
2022-10-05T12:00:23.438Z,21.19
2022-10-05T12:03:21.350Z,21.43
2022-10-05T12:06:05.742Z,21.79
2022-10-05T12:08:49.840Z,21.61
2022-10-05T12:11:39.124Z,21.48
2022-10-05T12:14:18.246Z,21.68
2022-10-05T12:16:54.071Z,21.57
2022-10-05T12:19:34.003Z,22.07
2022-10-05T12:22:15.535Z,21.67
2022-10-05T12:25:04.275Z,21.69
2022-10-05T12:27:46.948Z,21.77
2022-10-05T12:30:18.849Z,21.96
2022-10-05T12:33:02.212Z,21.85
2022-10-05T12:35:54.257Z,21.82
2022-10-05T12:38:29.222Z,21.87
2022-10-05T12:41:08.804Z,21.97
2022-10-05T12:43:49.895Z,22.33
2022-10-05T12:46:28.000Z,22.23
2022-10-05T12:49:18.474Z,22.10
2022-10-05T12:51:53.844Z,22.50
2022-10-05T12:54:31.257Z,22.27
2022-10-05T12:57:02.878Z,22.24
2022-10-05T12:59:41.252Z,22.57
2022-10-05T13:02:20.017Z,22.82
2022-10-05T13:04:56.161Z,22.72
2022-10-05T13:07:38.703Z,22.98
2022-10-05T13:19:53.855Z,23.10
2022-10-05T13:22:47.216Z,22.81
2022-10-05T13:25:26.982Z,23.22
2022-10-05T13:28:20.832Z,22.69
2022-10-05T13:30:59.378Z,23.17
2022-10-05T13:43:44.077Z,23.34
2022-10-05T13:46:19.469Z,23.06
2022-10-05T13:48:58.166Z,23.39
2022-10-05T13:51:30.698Z,23.38
2022-10-05T13:54:13.471Z,23.34
2022-10-05T13:56:48.410Z,22.94
2022-10-05T13:59:30.067Z,23.10
2022-10-05T14:02:03.532Z,23.16
2022-10-05T14:04:45.214Z,23.36
2022-10-05T14:16:20.458Z,23.45
2022-10-05T14:18:55.290Z,23.27
2022-10-05T14:21:25.365Z,23.69
2022-10-05T14:23:55.147Z,23.59
2022-10-05T14:26:37.245Z,23.35
2022-10-05T14:29:18.636Z,23.57
2022-10-05T14:31:55.167Z,23.45
2022-10-05T14:34:45.139Z,23.74
2022-10-05T14:37:20.751Z,23.59
2022-10-05T14:39:52.013Z,23.64
2022-10-05T14:42:21.317Z,23.70
2022-10-05T14:45:00.231Z,23.45
2022-10-05T14:47:34.426Z,23.19
2022-10-05T14:50:16.910Z,23.66
2022-10-05T14:52:51.913Z,23.62
2022-10-05T14:55:40.019Z,23.69
2022-10-05T14:58:24.297Z,23.50
2022-10-05T15:00:57.640Z,23.08
2022-10-05T15:03:45.771Z,23.32
2022-10-05T15:06:25.922Z,23.48
2022-10-05T15:09:17.668Z,23.53
2022-10-05T15:11:50.640Z,23.31
2022-10-05T15:14:23.306Z,23.61
2022-10-05T15:17:29.111Z,23.35
2022-10-05T15:20:05.225Z,23.30
2022-10-05T15:22:42.856Z,23.23
2022-10-05T15:25:16.260Z,23.23
2022-10-05T15:27:58.277Z,23.21
2022-10-05T15:30:26.350Z,22.74
2022-10-05T15:33:15.624Z,22.96
2022-10-05T15:36:00.786Z,23.10
2022-10-05T15:38:33.449Z,22.98
2022-10-05T15:41:09.530Z,22.87
2022-10-05T15:43:47.862Z,22.88
2022-10-05T15:46:23.514Z,22.79
2022-10-05T15:49:05.365Z,22.79
2022-10-05T15:51:45.560Z,22.73
2022-10-05T15:54:44.112Z,22.61
2022-10-05T15:57:26.385Z,22.42
2022-10-05T16:00:02.115Z,22.35
2022-10-05T16:02:38.587Z,22.20
2022-10-05T16:05:41.232Z,22.18
2022-10-05T16:08:37.858Z,22.03
2022-10-05T16:11:18.970Z,21.81
2022-10-05T16:14:00.469Z,21.79
2022-10-05T16:16:51.101Z,21.67
2022-10-05T16:19:55.419Z,21.56
2022-10-05T16:23:12.290Z,20.84
2022-10-05T16:26:27.538Z,20.82
2022-10-05T16:31:14.138Z,20.65
2022-10-05T16:34:00.325Z,20.71
2022-10-05T16:37:34.352Z,20.76
2022-10-05T16:50:23.943Z,19.54
2022-10-05T16:52:58.211Z,18.79
2022-10-05T18:30:07.949Z,16.34
2022-10-05T18:32:47.292Z,16.59
2022-10-05T18:35:20.788Z,16.54
2022-10-05T18:45:38.895Z,16.03
2022-10-05T18:49:04.620Z,16.08
2022-10-05T18:51:55.800Z,15.82
2022-10-05T19:34:44.885Z,15.33
2022-10-05T19:37:26.780Z,15.46
2022-10-05T19:39:59.176Z,15.59
2022-10-05T19:42:50.509Z,15.81
2022-10-05T19:48:22.255Z,15.53
2022-10-05T19:50:58.095Z,15.11
2022-10-05T19:58:57.686Z,15.30
2022-10-05T20:02:03.794Z,15.44
2022-10-05T20:04:36.793Z,15.27
2022-10-05T20:07:07.034Z,15.08
2022-10-05T20:09:55.067Z,14.32
2022-10-05T20:12:23.908Z,14.58
2022-10-05T20:15:26.687Z,14.98
2022-10-05T20:18:12.327Z,14.79
2022-10-05T20:20:45.860Z,14.91
2022-10-05T20:23:28.158Z,14.67
2022-10-05T20:26:13.995Z,14.12
2022-10-05T20:28:44.612Z,14.13
2022-10-05T20:31:14.656Z,14.80
2022-10-05T20:33:42.743Z,15.23
2022-10-05T21:32:08.746Z,16.11
